Hlavní strana
METAR-TAF:

METAR-TAF

Letiště :

Gällivare, Švédsko

zeměpisná šířka: 67-09N, zeměpisná délka: 020-39E, výška: 359 m

Aktuální stav počasí

Zpráva byla vytvořena před 20 minutami, v 18:20 UTC
Severní vítr 4 kt
Teplota -2°C
Vlhkost vzduchu 54%
Tlak 1010 hPa
Viditelnost 10 km a více

METAR: ESNG 131820Z AUTO 01004KT 9999 BKN055/// OVC068/// M02/M10 Q1010

Čas: 20:40 (18:40 UTC)

Předpověď počasí

Zpráva byla vytvořena před 3 hodinami a 25 minutami, v 15:15 UTC
Předpověď platná od 13 v 15 UTC do 13 v 18 UTC
Severní vítr 8 kt
Viditelnost 10 km a více
Oblačno až skoro zataženo ve výšce 3000 ft
Pravděpodobnost 40%
od 13 v 15 UTC do 13 v 18 UTC
Viditelnost: 2000 m
ve výšce 1000 ft
sníh

TAF: ESNG 131515Z 1315/1318 01008KT 9999 BKN030 PROB40 1315/1318 2000 SN VV010

Stav a předpovědi počasí z více než 4 000 letišť (zprávy METAR a TAF).

Červené a žluté tečky na mapě představují dostupné meteorologické stanice.

Když kurzor umístíte na tečku, zobrazí se název stanice.

Pak kliknutím zobrazíte stav a předpověď počasí.

Chcete-li změnit mapu, kliknutím na zelené tlačítko se znaménkem +mapu přiblížíte, kliknutím na zelené tlačítko se znaménkem – mapu oddálíte a kliknutím na zelené šipky přejdete na sousední mapy.


METAR-TAF: